Edinburgh M. O., Australia
Current Conditions -  °F | °C
As of 8:00 AM on Sunday 26 Oct 2014 (Local Time) from YPAD Reporting Station
Broken Clouds Broken Clouds  
Wind Chill: 63°   Ceiling: 12000
Heat Index: 63°   Visibility: 6mi
Dew Point: 54°   Wind: 14mph
Humidity: 72%   Direction: 40°NE
Pressure: 29.91"   Gusts: NA
Location:  34.71°S, 138.65°E
Report Text: YPAD 252200Z 04012KT CAVOK 17/12 Q1013 INTER 2300/0100 VRB30G45KT 5000 TSRA BKN120 SCT100CB
Loading
Personal Weather Stations






























Interactive Weather Map
Tropical Storm Tracking
New forecast layout! Learn more

10-Day Weather Forecast

Advertisements
Track Severe Weather on mobile